Cherryville, North Carolina
Current Conditions -  °F | °C
As of 6:15 PM on Wednesday 26 Nov 2014 (Local Time) from KIPJ Reporting Station
Broken Clouds Broken Clouds  
Wind Chill: 42°   Ceiling: 4600
Heat Index: 42°   Visibility: 10mi
Dew Point: 40°   Wind: 0mph
Humidity: 94%   Direction: NA
Pressure: 30.01"   Gusts: NA
Location:  35.38°N, 81.38°W
Report Text: KIPJ 262315Z AUTO 00000KT 10SM BKN046 BKN060 06/05 A3001 RMK AO2 T00560047
Loading
Personal Weather Stations






























Interactive Weather Map New forecast layout! Learn more

10-Day Weather Forecast

Advertisements
Track Severe Weather on mobile